Time;durP1;ratioP1;P1;durP2;ratioP2;P2;SDS_P1;SDS_P2;PMS_P1;PMS_P2;Temp;Humidity;BMP_temperature;BMP_pressure;BME280_temperature;BME280_humidity;BME280_pressure;Samples;Min_cycle;Max_cycle;Signal;HPM_P1;HPM_P2
2022/10/27 00:01:08;;;;;;;70.65;33.63;;;11.40;99.90;;;;;;5057091;28;20029;-78
2022/10/27 00:03:34;;;;;;;96.55;32.72;;;11.40;99.90;;;;;;5057007;28;20025;-78
2022/10/27 00:06:05;;;;;;;79.28;32.17;;;11.40;99.90;;;;;;5059739;28;20104;-81
2022/10/27 00:08:30;;;;;;;109.53;33.03;;;11.30;99.90;;;;;;5065646;28;20481;-79
2022/10/27 00:10:58;;;;;;;96.22;31.70;;;11.30;99.90;;;;;;5055816;28;20052;-78
2022/10/27 00:13:24;;;;;;;71.90;31.58;;;11.20;99.90;;;;;;5068114;28;20029;-79
2022/10/27 00:15:57;;;;;;;74.15;31.83;;;11.20;99.90;;;;;;5060229;28;20035;-79
2022/10/27 00:18:23;;;;;;;57.45;30.20;;;11.20;99.90;;;;;;5057608;28;20029;-79
2022/10/27 00:21:03;;;;;;;80.13;31.00;;;11.20;99.90;;;;;;5060808;28;20044;-78
2022/10/27 00:23:30;;;;;;;129.70;32.30;;;11.20;99.90;;;;;;5060821;28;20131;-78
2022/10/27 00:25:57;;;;;;;65.65;30.80;;;11.20;99.90;;;;;;5060528;28;20025;-78
2022/10/27 00:28:23;;;;;;;109.75;33.28;;;11.20;99.90;;;;;;5056936;28;20025;-81
2022/10/27 00:31:04;;;;;;;103.82;32.22;;;11.20;99.90;;;;;;5038766;28;20099;-80
2022/10/27 00:33:30;;;;;;;142.32;34.67;;;11.20;99.90;;;;;;5056884;28;20496;-79
2022/10/27 00:35:56;;;;;;;79.82;33.28;;;11.20;99.90;;;;;;5071192;28;20013;-78
2022/10/27 00:38:22;;;;;;;83.00;32.85;;;11.10;99.90;;;;;;5077257;28;20031;-78
2022/10/27 00:40:49;;;;;;;71.00;32.65;;;11.10;99.90;;;;;;5071157;28;20025;-80
2022/10/27 00:43:31;;;;;;;65.60;31.88;;;11.10;99.90;;;;;;5058493;28;20029;-78
2022/10/27 00:46:02;;;;;;;73.75;31.95;;;11.20;99.90;;;;;;5064366;28;20085;-78
2022/10/27 00:48:30;;;;;;;85.15;31.33;;;11.10;99.90;;;;;;5057709;28;20025;-80
2022/10/27 00:50:58;;;;;;;72.38;30.83;;;11.20;99.90;;;;;;5056054;28;20017;-78
2022/10/27 00:53:24;;;;;;;107.88;33.08;;;11.10;99.90;;;;;;5065171;28;20382;-79
2022/10/27 00:55:50;;;;;;;74.63;31.92;;;11.10;99.90;;;;;;5061511;28;20120;-79
2022/10/27 00:58:18;;;;;;;71.68;29.65;;;11.10;99.90;;;;;;5053651;28;20029;-78
2022/10/27 01:00:44;;;;;;;83.00;30.40;;;11.20;99.90;;;;;;5060315;28;20025;-78
2022/10/27 01:03:13;;;;;;;98.13;30.25;;;11.20;99.90;;;;;;5067189;28;20078;-79
2022/10/27 01:05:39;;;;;;;68.55;28.58;;;11.20;99.90;;;;;;5065016;28;20044;-81
2022/10/27 01:08:06;;;;;;;61.88;28.52;;;11.20;99.90;;;;;;5058856;28;20063;-79
2022/10/27 01:10:32;;;;;;;76.80;28.90;;;11.20;99.90;;;;;;5058386;28;20020;-78
2022/10/27 01:13:00;;;;;;;89.10;31.13;;;11.10;99.90;;;;;;5056338;28;20069;-80
2022/10/27 01:15:44;;;;;;;81.70;29.23;;;11.10;99.90;;;;;;5055059;28;20033;-79
2022/10/27 01:18:34;;;;;;;56.08;28.83;;;11.10;99.90;;;;;;5067732;28;20029;-79
2022/10/27 01:21:02;;;;;;;82.68;29.52;;;11.10;99.90;;;;;;5064229;28;20762;-79
2022/10/27 01:23:54;;;;;;;74.70;28.13;;;11.10;99.90;;;;;;5070493;28;20059;-78
2022/10/27 01:26:45;;;;;;;76.05;28.38;;;11.00;99.90;;;;;;5066190;28;20037;-79
2022/10/27 01:29:37;;;;;;;70.30;28.85;;;11.00;99.90;;;;;;5054506;28;20443;-78
2022/10/27 01:32:39;;;;;;;79.57;28.48;;;11.00;99.90;;;;;;5059363;28;20033;-79
2022/10/27 01:35:26;;;;;;;61.22;27.13;;;11.00;99.90;;;;;;5065927;28;20048;-77
2022/10/27 01:38:16;;;;;;;88.05;28.00;;;10.90;99.90;;;;;;5061938;28;20044;-80
2022/10/27 01:41:06;;;;;;;67.68;26.13;;;10.90;99.90;;;;;;5059690;28;20048;-80
2022/10/27 01:43:34;;;;;;;72.68;26.67;;;10.80;99.90;;;;;;5040200;28;20454;-78
2022/10/27 01:46:02;;;;;;;90.43;26.98;;;10.80;99.90;;;;;;5059075;28;20032;-79
2022/10/27 01:48:28;;;;;;;64.28;26.13;;;10.80;99.90;;;;;;5058492;28;20074;-80
2022/10/27 01:50:54;;;;;;;61.08;26.10;;;10.80;99.90;;;;;;5058135;28;20025;-79
2022/10/27 01:53:20;;;;;;;79.15;25.95;;;10.80;99.90;;;;;;5059466;28;20032;-78
2022/10/27 01:56:02;;;;;;;54.75;27.15;;;10.80;99.90;;;;;;5059091;28;20025;-80
2022/10/27 01:58:50;;;;;;;62.05;26.65;;;10.70;99.90;;;;;;5063851;28;20105;-79
2022/10/27 02:01:28;;;;;;;47.50;26.55;;;10.70;99.90;;;;;;5070780;28;20033;-78
2022/10/27 02:04:23;;;;;;;45.40;27.23;;;10.70;99.90;;;;;;5065290;28;20025;-80
2022/10/27 02:07:04;;;;;;;44.75;26.17;;;10.80;99.90;;;;;;5059021;28;20095;-77
2022/10/27 02:09:51;;;;;;;44.47;25.88;;;10.80;99.90;;;;;;5062583;28;20029;-80
2022/10/27 02:12:32;;;;;;;47.47;26.80;;;10.80;99.90;;;;;;5063286;28;20028;-79
2022/10/27 02:15:01;;;;;;;47.65;27.27;;;10.80;99.90;;;;;;5064067;28;20025;-80
2022/10/27 02:17:48;;;;;;;52.15;27.17;;;10.80;99.90;;;;;;5066471;28;20025;-80
2022/10/27 02:20:25;;;;;;;58.22;29.45;;;10.80;99.90;;;;;;5040371;28;20480;-80
2022/10/27 02:22:54;;;;;;;70.40;27.35;;;10.70;99.90;;;;;;5058940;28;20120;-80
2022/10/27 02:25:23;;;;;;;46.33;26.10;;;10.70;99.90;;;;;;5057472;28;20040;-80
2022/10/27 02:27:57;;;;;;;50.53;29.25;;;10.70;99.90;;;;;;5058719;28;20033;-79
2022/10/27 02:30:23;;;;;;;60.70;30.27;;;10.70;99.90;;;;;;5058202;28;20036;-78
2022/10/27 02:32:49;;;;;;;55.22;27.50;;;10.70;99.90;;;;;;5065263;28;20025;-79
2022/10/27 02:35:16;;;;;;;55.22;28.77;;;10.70;99.90;;;;;;5062961;28;20041;-79
2022/10/27 02:37:45;;;;;;;57.20;29.85;;;10.80;99.90;;;;;;5068738;28;20207;-77
2022/10/27 02:40:10;;;;;;;61.80;29.10;;;10.80;99.90;;;;;;5071203;28;20059;-78
2022/10/27 02:42:36;;;;;;;56.88;29.75;;;10.70;99.90;;;;;;5064784;28;20028;-78
2022/10/27 02:45:03;;;;;;;71.00;30.65;;;10.70;99.90;;;;;;5061971;28;20056;-79
2022/10/27 02:47:28;;;;;;;104.63;32.33;;;10.70;99.90;;;;;;5064408;28;20029;-78
2022/10/27 02:49:54;;;;;;;54.90;28.13;;;10.70;99.90;;;;;;5059018;28;20112;-79
2022/10/27 02:52:20;;;;;;;60.60;29.75;;;10.70;99.90;;;;;;5066533;28;20120;-78
2022/10/27 02:54:47;;;;;;;51.53;27.35;;;10.70;99.90;;;;;;5065567;28;20029;-81
2022/10/27 02:57:19;;;;;;;67.70;28.42;;;10.70;99.90;;;;;;5060554;28;20037;-79
2022/10/27 02:59:45;;;;;;;64.57;27.10;;;10.70;99.90;;;;;;5066472;28;20043;-80
2022/10/27 03:02:11;;;;;;;70.38;26.55;;;10.70;99.90;;;;;;5059043;28;20485;-81
2022/10/27 03:04:36;;;;;;;61.88;27.20;;;10.60;99.90;;;;;;5061317;28;20057;-78
2022/10/27 03:07:03;;;;;;;70.75;27.05;;;10.70;99.90;;;;;;5069386;28;20071;-79
2022/10/27 03:09:29;;;;;;;101.20;28.42;;;10.60;99.90;;;;;;5067401;28;20025;-79
2022/10/27 03:11:55;;;;;;;68.20;26.58;;;10.60;99.90;;;;;;5064309;28;20032;-79
2022/10/27 03:14:20;;;;;;;56.75;26.58;;;10.50;99.90;;;;;;5060102;28;20025;-80
2022/10/27 03:16:46;;;;;;;46.38;26.90;;;10.50;99.90;;;;;;5069328;28;20021;-78
2022/10/27 03:19:12;;;;;;;51.45;26.30;;;10.50;99.90;;;;;;5060907;28;20183;-78
2022/10/27 03:21:38;;;;;;;55.20;26.73;;;10.50;99.90;;;;;;5059451;28;20052;-78
2022/10/27 03:24:04;;;;;;;57.05;27.95;;;10.50;99.90;;;;;;5068305;28;20040;-78
2022/10/27 03:26:29;;;;;;;51.58;26.88;;;10.50;99.90;;;;;;5061368;28;20028;-79
2022/10/27 03:28:56;;;;;;;47.53;27.35;;;10.50;99.90;;;;;;5062820;28;20104;-77
2022/10/27 03:31:22;;;;;;;51.63;28.20;;;10.50;99.90;;;;;;5066683;28;20021;-79
2022/10/27 03:33:48;;;;;;;54.45;27.70;;;10.50;99.90;;;;;;5058142;28;20323;-79
2022/10/27 03:36:14;;;;;;;54.00;27.98;;;10.50;99.90;;;;;;5059968;28;20104;-78
2022/10/27 03:38:40;;;;;;;51.72;27.67;;;10.50;99.90;;;;;;5062138;28;20028;-79
2022/10/27 03:41:05;;;;;;;47.58;27.15;;;10.50;99.90;;;;;;5060745;28;20028;-79
2022/10/27 03:43:31;;;;;;;44.85;25.95;;;10.50;99.90;;;;;;5057077;28;20102;-78
2022/10/27 03:45:57;;;;;;;49.15;26.95;;;10.50;99.90;;;;;;5056699;28;20175;-80
2022/10/27 03:48:22;;;;;;;56.00;28.25;;;10.50;99.90;;;;;;5056742;28;20028;-80
2022/10/27 03:50:49;;;;;;;47.03;28.15;;;10.50;99.90;;;;;;5056977;28;20032;-78
2022/10/27 03:53:17;;;;;;;43.97;26.05;;;10.50;99.90;;;;;;5057499;28;20040;-80
2022/10/27 03:55:43;;;;;;;48.85;27.05;;;10.50;99.90;;;;;;5055779;28;20025;-79
2022/10/27 03:58:12;;;;;;;48.75;25.55;;;10.50;99.90;;;;;;5058265;28;20569;-78
2022/10/27 04:00:38;;;;;;;47.80;26.40;;;10.50;99.90;;;;;;5064490;28;20074;-77
2022/10/27 04:03:04;;;;;;;44.03;24.27;;;10.50;99.90;;;;;;5069056;28;20025;-79
2022/10/27 04:05:30;;;;;;;45.75;25.98;;;10.50;99.90;;;;;;5069213;28;20062;-78
2022/10/27 04:07:56;;;;;;;41.50;23.50;;;10.50;99.90;;;;;;5068631;28;20021;-78
2022/10/27 04:10:21;;;;;;;55.97;24.83;;;10.50;99.90;;;;;;5068241;28;20063;-77
2022/10/27 04:12:52;;;;;;;48.80;25.55;;;10.50;99.90;;;;;;5066962;28;20051;-80
2022/10/27 04:15:19;;;;;;;67.80;27.98;;;10.60;99.90;;;;;;5062090;28;20033;-79
2022/10/27 04:17:44;;;;;;;45.92;26.58;;;10.60;99.90;;;;;;5063029;28;20064;-78
2022/10/27 04:20:11;;;;;;;50.65;25.38;;;10.60;99.90;;;;;;5065209;28;20059;-78
2022/10/27 04:22:37;;;;;;;50.50;25.75;;;10.60;99.90;;;;;;5066772;28;20063;-77
2022/10/27 04:25:03;;;;;;;49.80;24.98;;;10.60;99.90;;;;;;5065438;28;20029;-78
2022/10/27 04:27:29;;;;;;;51.00;24.98;;;10.70;99.90;;;;;;5056838;28;20024;-78
2022/10/27 04:29:54;;;;;;;55.83;25.55;;;10.70;99.90;;;;;;5056279;28;20067;-79
2022/10/27 04:32:20;;;;;;;95.20;25.83;;;10.70;99.90;;;;;;5056271;28;20378;-78
2022/10/27 04:34:46;;;;;;;112.32;26.83;;;10.70;99.90;;;;;;5057941;28;20156;-79
2022/10/27 04:37:12;;;;;;;56.25;27.00;;;10.60;99.90;;;;;;5058156;28;20025;-79
2022/10/27 04:39:37;;;;;;;69.32;25.83;;;10.60;99.90;;;;;;5059325;28;20037;-79
2022/10/27 04:42:03;;;;;;;67.40;26.58;;;10.50;99.90;;;;;;5077005;28;20028;-78
2022/10/27 04:44:29;;;;;;;74.10;26.75;;;10.50;99.90;;;;;;5076140;28;20067;-79
2022/10/27 04:46:54;;;;;;;68.32;27.00;;;10.50;99.90;;;;;;5061912;28;20048;-79
2022/10/27 04:49:20;;;;;;;51.00;26.55;;;10.50;99.90;;;;;;5056009;28;20504;-78
2022/10/27 04:51:46;;;;;;;84.95;25.75;;;10.50;99.90;;;;;;5059450;28;20037;-80
2022/10/27 04:54:12;;;;;;;65.63;27.15;;;10.50;99.90;;;;;;5059272;28;20082;-79
2022/10/27 04:56:37;;;;;;;62.95;25.70;;;10.50;99.90;;;;;;5060986;28;20032;-78
2022/10/27 04:59:03;;;;;;;77.28;27.00;;;10.50;99.90;;;;;;5064213;28;20081;-80
2022/10/27 05:01:29;;;;;;;87.03;26.17;;;10.50;99.90;;;;;;5064075;28;20083;-79
2022/10/27 05:03:55;;;;;;;100.40;26.05;;;10.50;99.90;;;;;;5063326;28;20508;-78
2022/10/27 05:06:20;;;;;;;89.70;23.83;;;10.50;99.90;;;;;;5040603;28;20097;-79
2022/10/27 05:08:46;;;;;;;63.28;23.40;;;10.50;99.90;;;;;;5058802;28;20562;-80
2022/10/27 05:11:12;;;;;;;78.90;22.23;;;10.40;99.90;;;;;;5058245;28;20029;-80
2022/10/27 05:13:38;;;;;;;60.67;22.92;;;10.40;99.90;;;;;;5059508;28;20036;-78
2022/10/27 05:16:04;;;;;;;58.20;21.38;;;10.40;99.90;;;;;;5068047;28;20029;-80
2022/10/27 05:18:30;;;;;;;60.53;21.60;;;10.40;99.90;;;;;;5067123;28;20037;-80
2022/10/27 05:20:56;;;;;;;42.88;22.25;;;10.40;99.90;;;;;;5063228;28;20044;-80
2022/10/27 05:23:22;;;;;;;41.42;20.20;;;10.40;99.90;;;;;;5067404;28;20025;-79
2022/10/27 05:25:52;;;;;;;43.17;21.55;;;10.40;99.90;;;;;;5071899;28;20079;-81
2022/10/27 05:28:18;;;;;;;45.03;19.50;;;10.40;99.90;;;;;;5056462;28;20029;-79
2022/10/27 05:30:44;;;;;;;36.83;20.40;;;10.40;99.90;;;;;;5057776;28;20158;-80
2022/10/27 05:33:10;;;;;;;41.83;20.13;;;10.30;99.90;;;;;;5062769;28;20021;-79
2022/10/27 05:35:36;;;;;;;38.13;20.67;;;10.40;99.90;;;;;;5070629;28;20025;-80
2022/10/27 05:38:01;;;;;;;35.80;20.65;;;10.40;99.90;;;;;;5071022;28;20037;-81
2022/10/27 05:40:33;;;;;;;33.15;20.35;;;10.40;99.90;;;;;;5058236;28;20032;-80
2022/10/27 05:43:00;;;;;;;36.85;19.67;;;10.40;99.90;;;;;;5046356;28;20525;-79
2022/10/27 05:45:26;;;;;;;35.83;20.55;;;10.40;99.90;;;;;;5048537;28;20026;-79
2022/10/27 05:48:02;;;;;;;40.40;21.23;;;10.50;99.90;;;;;;5048247;28;20028;-82
2022/10/27 05:50:28;;;;;;;41.42;21.17;;;10.50;99.90;;;;;;5045700;28;20084;-81
2022/10/27 05:52:55;;;;;;;33.67;20.88;;;10.50;99.90;;;;;;5047461;28;20067;-79
2022/10/27 05:55:22;;;;;;;40.80;21.67;;;10.50;99.90;;;;;;5044355;28;20028;-80
2022/10/27 05:58:01;;;;;;;42.92;21.25;;;10.50;99.90;;;;;;5048831;28;20100;-81
2022/10/27 06:00:32;;;;;;;43.30;20.80;;;10.50;99.90;;;;;;5050426;28;20032;-80
2022/10/27 06:03:00;;;;;;;43.70;21.05;;;10.60;99.90;;;;;;5051040;28;20072;-81
2022/10/27 06:05:27;;;;;;;39.33;20.33;;;10.60;99.90;;;;;;5048611;28;20485;-79
2022/10/27 06:07:53;;;;;;;51.55;21.73;;;10.60;99.90;;;;;;5038542;28;20116;-79
2022/10/27 06:10:19;;;;;;;52.20;21.05;;;10.70;99.90;;;;;;5039264;28;20041;-79
2022/10/27 06:12:45;;;;;;;38.40;20.38;;;10.60;99.90;;;;;;5038329;28;20029;-80
2022/10/27 06:15:11;;;;;;;40.20;19.80;;;10.70;99.90;;;;;;5044426;28;20025;-79
2022/10/27 06:17:36;;;;;;;36.78;19.27;;;10.70;99.90;;;;;;5056188;28;20051;-81
2022/10/27 06:20:03;;;;;;;36.67;18.27;;;10.70;99.90;;;;;;5039511;28;20033;-82
2022/10/27 06:22:29;;;;;;;31.77;17.92;;;10.80;99.90;;;;;;5053861;28;20413;-80
2022/10/27 06:24:55;;;;;;;35.15;18.92;;;10.80;99.90;;;;;;5061275;28;20025;-81
2022/10/27 06:27:21;;;;;;;41.90;18.42;;;10.90;99.90;;;;;;5062137;28;20052;-80
2022/10/27 06:29:46;;;;;;;27.38;17.80;;;10.90;99.90;;;;;;5060968;28;20021;-81
2022/10/27 06:32:12;;;;;;;35.28;18.27;;;10.90;99.90;;;;;;5043083;28;20102;-81
2022/10/27 06:34:38;;;;;;;37.17;17.13;;;10.90;99.90;;;;;;5025041;28;20022;-79
2022/10/27 06:37:04;;;;;;;31.20;16.58;;;11.00;99.90;;;;;;5043244;28;20121;-79
2022/10/27 06:39:30;;;;;;;29.65;16.17;;;11.00;99.90;;;;;;5062459;28;20028;-79
2022/10/27 06:41:57;;;;;;;27.67;15.70;;;11.00;99.90;;;;;;5062869;28;20025;-80
2022/10/27 06:44:23;;;;;;;24.98;15.07;;;11.00;99.90;;;;;;5064928;28;20105;-81
2022/10/27 06:46:49;;;;;;;25.02;14.50;;;11.00;99.90;;;;;;5070053;28;20087;-78
2022/10/27 06:49:15;;;;;;;28.15;14.20;;;11.00;99.90;;;;;;5047701;28;20033;-80
2022/10/27 06:51:41;;;;;;;22.67;13.80;;;11.10;99.90;;;;;;5041121;28;20025;-82
2022/10/27 06:54:07;;;;;;;23.00;14.35;;;11.10;99.90;;;;;;5042024;28;20029;-82
2022/10/27 06:56:33;;;;;;;31.02;16.98;;;11.20;99.90;;;;;;5047038;28;20029;-79
2022/10/27 06:58:59;;;;;;;35.72;15.82;;;11.20;99.90;;;;;;5050944;28;20048;-78
2022/10/27 07:01:26;;;;;;;41.88;15.68;;;11.20;99.90;;;;;;5046496;28;20083;-81
2022/10/27 07:03:52;;;;;;;23.33;15.40;;;11.20;99.90;;;;;;5041772;28;20048;-79
2022/10/27 07:06:17;;;;;;;24.75;15.55;;;11.30;99.90;;;;;;5040935;28;20470;-81
2022/10/27 07:08:43;;;;;;;24.25;15.27;;;11.30;99.90;;;;;;5042423;28;20029;-81
2022/10/27 07:11:09;;;;;;;29.70;15.07;;;11.40;99.90;;;;;;5050219;28;20056;-81
2022/10/27 07:13:35;;;;;;;32.65;16.35;;;11.50;99.90;;;;;;5046825;28;20055;-79
2022/10/27 07:16:01;;;;;;;27.98;15.48;;;11.60;99.90;;;;;;5044296;28;20065;-80
2022/10/27 07:18:27;;;;;;;28.27;15.30;;;11.70;99.90;;;;;;5042894;28;20405;-81
2022/10/27 07:20:53;;;;;;;23.65;14.50;;;11.70;99.90;;;;;;5043691;28;20034;-79
2022/10/27 07:23:19;;;;;;;24.48;15.27;;;11.70;99.90;;;;;;5062119;28;20025;-79
2022/10/27 07:25:49;;;;;;;26.92;15.65;;;11.80;99.90;;;;;;5063141;28;20056;-80
2022/10/27 07:28:16;;;;;;;29.20;15.98;;;11.90;99.90;;;;;;5061654;28;20087;-80
2022/10/27 07:30:43;;;;;;;31.58;15.55;;;12.00;99.90;;;;;;5061284;28;20029;-82
2022/10/27 07:33:10;;;;;;;24.27;13.90;;;12.10;99.90;;;;;;5061414;28;20033;-81
2022/10/27 07:35:36;;;;;;;24.48;13.93;;;12.30;99.90;;;;;;5067900;28;20099;-80
2022/10/27 07:38:01;;;;;;;25.67;15.05;;;12.60;99.90;;;;;;5065295;28;20401;-81
2022/10/27 07:40:27;;;;;;;24.30;15.07;;;12.80;99.90;;;;;;5064729;28;20032;-82
2022/10/27 07:42:58;;;;;;;21.48;12.95;;;13.00;99.90;;;;;;5063015;28;20036;-79
2022/10/27 07:45:26;;;;;;;20.92;13.10;;;13.20;99.90;;;;;;5066631;28;20025;-80
2022/10/27 07:47:54;;;;;;;25.95;14.23;;;13.40;99.90;;;;;;5064414;28;20228;-81
2022/10/27 07:50:22;;;;;;;26.67;14.35;;;13.60;99.90;;;;;;5063494;28;20123;-80
2022/10/27 07:52:51;;;;;;;23.02;14.20;;;13.60;99.90;;;;;;5063113;28;20028;-80
2022/10/27 07:55:19;;;;;;;22.08;14.43;;;13.50;99.90;;;;;;5060926;28;20043;-81
2022/10/27 07:57:46;;;;;;;25.48;15.55;;;13.60;99.90;;;;;;5057430;28;20033;-80
2022/10/27 08:00:14;;;;;;;23.55;14.88;;;13.60;99.90;;;;;;5065206;28;20037;-81
2022/10/27 08:02:40;;;;;;;24.65;14.85;;;13.40;99.90;;;;;;5058884;28;20021;-80
2022/10/27 08:05:07;;;;;;;29.40;16.58;;;13.40;99.90;;;;;;5059262;28;20037;-80
2022/10/27 08:07:33;;;;;;;29.30;16.08;;;13.40;99.90;;;;;;5059275;28;20120;-80
2022/10/27 08:09:59;;;;;;;23.92;15.80;;;13.50;99.90;;;;;;5059352;28;20032;-80
2022/10/27 08:12:25;;;;;;;26.50;15.95;;;13.70;99.90;;;;;;5057616;28;20107;-79
2022/10/27 08:14:51;;;;;;;33.70;19.20;;;13.80;99.90;;;;;;5058274;28;20040;-80
2022/10/27 08:17:17;;;;;;;27.40;15.73;;;13.90;99.90;;;;;;5061665;28;20036;-79
2022/10/27 08:19:42;;;;;;;22.77;14.82;;;14.00;99.90;;;;;;5070636;28;20026;-78
2022/10/27 08:22:08;;;;;;;27.52;14.55;;;14.20;99.90;;;;;;5050827;28;20366;-81
2022/10/27 08:24:34;;;;;;;22.65;13.73;;;14.50;99.90;;;;;;5040331;28;20029;-81
2022/10/27 08:27:00;;;;;;;19.33;12.07;;;14.90;99.90;;;;;;5039777;28;20030;-80
2022/10/27 08:29:26;;;;;;;17.83;11.55;;;15.50;99.90;;;;;;5048463;28;20080;-81
2022/10/27 08:31:52;;;;;;;16.48;10.43;;;16.20;99.90;;;;;;5044812;28;20053;-80
2022/10/27 08:34:18;;;;;;;21.38;11.38;;;17.30;99.90;;;;;;5041606;28;20037;-80
2022/10/27 08:36:44;;;;;;;20.00;10.95;;;18.60;99.90;;;;;;5043159;28;20029;-80
2022/10/27 08:39:11;;;;;;;17.02;10.63;;;19.10;99.90;;;;;;5026209;28;20041;-79
2022/10/27 08:41:43;;;;;;;20.80;12.43;;;19.60;99.90;;;;;;5050488;28;20029;-81
2022/10/27 08:44:31;;;;;;;32.30;16.27;;;20.00;99.90;;;;;;5043519;28;20033;-79
2022/10/27 08:47:02;;;;;;;22.15;13.73;;;20.60;99.90;;;;;;5042243;28;20105;-79
2022/10/27 08:49:39;;;;;;;19.05;13.45;;;21.30;99.90;;;;;;5047024;28;20029;-80
2022/10/27 08:52:28;;;;;;;17.27;12.25;;;22.00;99.90;;;;;;5043336;28;20454;-80
2022/10/27 08:55:18;;;;;;;17.58;10.77;;;22.90;99.90;;;;;;5056527;28;20061;-80
2022/10/27 08:58:12;;;;;;;20.45;12.32;;;23.80;99.90;;;;;;5056329;28;20037;-81
2022/10/27 09:01:14;;;;;;;19.42;11.82;;;24.80;99.90;;;;;;5031700;28;20146;-81
2022/10/27 09:04:05;;;;;;;17.38;12.27;;;25.30;99.90;;;;;;5055631;28;20051;-80
2022/10/27 09:06:53;;;;;;;17.45;11.52;;;25.60;99.30;;;;;;5057261;28;20045;-82
2022/10/27 09:09:29;;;;;;;17.95;11.07;;;25.90;98.40;;;;;;5058161;28;20400;-82
2022/10/27 09:12:01;;;;;;;14.90;11.63;;;25.80;98.30;;;;;;5058258;28;20033;-81
2022/10/27 09:14:51;;;;;;;17.98;11.23;;;26.10;97.80;;;;;;5057783;28;20095;-80
2022/10/27 09:17:33;;;;;;;18.52;11.68;;;26.90;96.70;;;;;;5057259;28;20064;-80
2022/10/27 09:20:10;;;;;;;19.85;11.82;;;28.00;95.00;;;;;;5059199;28;20037;-81
2022/10/27 09:22:40;;;;;;;15.95;11.10;;;28.20;93.70;;;;;;5048022;28;20073;-85
2022/10/27 09:25:17;;;;;;;15.75;11.13;;;28.30;93.20;;;;;;5039424;28;20113;-83
2022/10/27 09:27:45;;;;;;;20.23;11.35;;;29.30;92.00;;;;;;5039144;28;20029;-81
2022/10/27 09:30:13;;;;;;;18.23;11.27;;;29.80;90.90;;;;;;5036240;28;20049;-81
2022/10/27 09:32:42;;;;;;;20.80;12.05;;;29.60;90.20;;;;;;5036718;28;20025;-81
2022/10/27 09:35:14;;;;;;;16.35;11.48;;;29.10;90.20;;;;;;5037437;28;20025;-81
2022/10/27 09:37:41;;;;;;;16.30;11.10;;;29.00;90.30;;;;;;5039422;28;20030;-81
2022/10/27 09:40:19;;;;;;;20.05;11.70;;;28.90;90.30;;;;;;5040591;28;20021;-80
2022/10/27 09:42:47;;;;;;;17.65;11.23;;;29.30;90.10;;;;;;5041611;28;20037;-81
2022/10/27 09:45:25;;;;;;;23.05;12.27;;;29.90;88.90;;;;;;5038563;28;20022;-82
2022/10/27 09:47:57;;;;;;;19.65;10.70;;;30.60;87.60;;;;;;5040732;28;20037;-82
2022/10/27 09:50:27;;;;;;;19.63;11.68;;;30.80;86.50;;;;;;5043044;28;20030;-83
2022/10/27 09:52:53;;;;;;;21.30;12.18;;;30.50;85.40;;;;;;5043586;28;20029;-82
2022/10/27 09:55:19;;;;;;;17.90;11.73;;;30.60;84.60;;;;;;5042277;28;20032;-81
2022/10/27 09:57:46;;;;;;;19.40;12.13;;;30.80;84.40;;;;;;5044596;28;20029;-80
2022/10/27 10:00:15;;;;;;;21.05;14.10;;;30.60;84.40;;;;;;5052923;28;20366;-81
2022/10/27 10:03:00;;;;;;;17.65;12.90;;;30.60;83.80;;;;;;5067645;28;20029;-79
2022/10/27 10:05:31;;;;;;;19.05;13.27;;;31.10;83.20;;;;;;5065336;28;20052;-80
2022/10/27 10:08:22;;;;;;;17.90;13.82;;;31.30;82.20;;;;;;5065272;28;20033;-81
2022/10/27 10:11:00;;;;;;;20.42;13.73;;;31.30;81.90;;;;;;5067239;28;20025;-80
2022/10/27 10:13:31;;;;;;;24.17;14.25;;;31.50;81.10;;;;;;5064318;28;20037;-80
2022/10/27 10:16:13;;;;;;;22.20;12.25;;;31.80;80.30;;;;;;5066720;28;20039;-80
2022/10/27 10:18:42;;;;;;;19.55;13.13;;;31.80;80.00;;;;;;5065308;28;20028;-81
2022/10/27 10:21:10;;;;;;;20.52;11.80;;;31.20;80.40;;;;;;5067419;28;20083;-81
2022/10/27 10:23:50;;;;;;;15.15;11.57;;;31.20;80.40;;;;;;5048799;28;20042;-81
2022/10/27 10:26:28;;;;;;;21.25;12.55;;;31.60;79.90;;;;;;5048626;28;20032;-79
2022/10/27 10:29:07;;;;;;;17.52;11.60;;;29.70;80.60;;;;;;5059112;28;20034;-79
2022/10/27 10:31:35;;;;;;;16.33;11.88;;;29.20;83.60;;;;;;5057408;28;20076;-81
2022/10/27 10:34:03;;;;;;;15.30;10.48;;;29.60;83.40;;;;;;5048882;28;20049;-81
2022/10/27 10:36:40;;;;;;;19.92;10.70;;;30.10;82.70;;;;;;5047648;28;20034;-81
2022/10/27 10:39:21;;;;;;;14.35;9.80;;;30.90;81.10;;;;;;5050308;28;20085;-79
2022/10/27 10:42:12;;;;;;;14.77;9.98;;;31.20;80.40;;;;;;5049514;28;20035;-78
2022/10/27 10:44:38;;;;;;;20.20;10.95;;;31.60;79.40;;;;;;5045845;28;20436;-80
2022/10/27 10:47:06;;;;;;;14.00;9.77;;;31.70;78.90;;;;;;5043106;28;20026;-80
2022/10/27 10:49:39;;;;;;;15.48;12.10;;;31.80;78.60;;;;;;5039832;28;20045;-82
2022/10/27 10:52:17;;;;;;;16.10;11.95;;;31.60;78.50;;;;;;5047390;28;20064;-81
2022/10/27 10:54:44;;;;;;;18.20;12.63;;;31.90;78.60;;;;;;5050755;28;20460;-80
2022/10/27 10:57:42;;;;;;;20.00;12.73;;;32.00;78.10;;;;;;5050921;28;20022;-80
2022/10/27 11:00:16;;;;;;;17.00;11.20;;;31.90;78.10;;;;;;5050007;28;20037;-82
2022/10/27 11:02:59;;;;;;;16.40;11.65;;;31.50;78.10;;;;;;5065021;28;20089;-80
2022/10/27 11:05:29;;;;;;;17.98;12.52;;;31.50;78.30;;;;;;5068179;28;20097;-83
2022/10/27 11:07:55;;;;;;;20.58;12.25;;;32.20;77.30;;;;;;5045431;28;20096;-82
2022/10/27 11:10:40;;;;;;;18.70;12.10;;;32.40;76.20;;;;;;5048401;28;20481;-82
2022/10/27 11:13:37;;;;;;;16.35;12.05;;;32.40;76.30;;;;;;5043891;28;20028;-80
2022/10/27 11:16:06;;;;;;;18.20;12.20;;;32.40;76.30;;;;;;5040521;28;20044;-80
2022/10/27 11:18:57;;;;;;;22.10;12.23;;;32.60;75.90;;;;;;5064788;28;20029;-80
2022/10/27 11:21:30;;;;;;;16.17;12.20;;;32.90;75.70;;;;;;5087458;23;20041;-88
2022/10/27 11:24:19;;;;;;;19.60;12.10;;;32.80;74.80;;;;;;5074875;28;20072;-86
2022/10/27 11:27:00;;;;;;;22.15;12.00;;;32.60;75.40;;;;;;5072657;28;20041;-86
2022/10/27 11:29:43;;;;;;;16.63;10.93;;;33.10;74.40;;;;;;5072149;28;20032;-85
2022/10/27 11:32:39;;;;;;;15.90;9.90;;;33.40;74.20;;;;;;5064744;28;20067;-87
2022/10/27 11:35:24;;;;;;;15.65;10.93;;;34.10;72.70;;;;;;5045961;28;20040;-86
2022/10/27 11:38:23;;;;;;;19.10;9.95;;;33.50;72.90;;;;;;5067203;28;20048;-87
2022/10/27 11:41:02;;;;;;;17.02;10.38;;;33.20;73.30;;;;;;5067774;28;20401;-85
2022/10/27 11:43:35;;;;;;;21.20;10.43;;;33.10;73.30;;;;;;5066873;28;20033;-85
2022/10/27 11:46:09;;;;;;;12.80;10.07;;;33.00;73.60;;;;;;5066435;28;20039;-85
2022/10/27 11:48:39;;;;;;;19.08;11.05;;;33.10;73.50;;;;;;5067146;28;20052;-87
2022/10/27 11:51:16;;;;;;;19.23;11.20;;;33.60;72.70;;;;;;5065933;28;20033;-87
2022/10/27 11:53:42;;;;;;;15.10;9.68;;;33.70;72.50;;;;;;5066943;28;20092;-86
2022/10/27 11:56:20;;;;;;;14.77;10.48;;;33.80;72.40;;;;;;5066146;28;20025;-86
2022/10/27 11:58:56;;;;;;;13.38;9.02;;;33.60;72.40;;;;;;5065883;28;20029;-87
2022/10/27 12:02:01;;;;;;;15.55;8.60;;;33.70;72.40;;;;;;5064467;28;20064;-86
2022/10/27 12:04:45;;;;;;;16.73;9.02;;;33.10;72.20;;;;;;5046239;28;20049;-87
2022/10/27 12:07:35;;;;;;;14.55;8.73;;;31.00;75.10;;;;;;5055833;28;20088;-86
2022/10/27 12:10:24;;;;;;;13.68;8.15;;;29.00;77.70;;;;;;5059642;28;20033;-87
2022/10/27 12:12:57;;;;;;;13.38;8.20;;;27.60;82.00;;;;;;5057123;28;20073;-84
2022/10/27 12:15:52;;;;;;;17.23;8.93;;;26.50;85.00;;;;;;5060836;28;20052;-87
2022/10/27 12:18:50;;;;;;;16.00;8.93;;;25.60;87.90;;;;;;5059975;28;20100;-87
2022/10/27 12:21:27;;;;;;;13.30;8.10;;;24.90;90.40;;;;;;5048654;28;20033;-85
2022/10/27 12:24:13;;;;;;;15.98;8.20;;;24.20;92.10;;;;;;5058692;28;20033;-86
2022/10/27 12:26:59;;;;;;;14.50;8.80;;;23.70;93.40;;;;;;5064434;28;20052;-87
2022/10/27 12:29:39;;;;;;;13.52;8.02;;;23.20;95.00;;;;;;5061302;28;20097;-86
2022/10/27 12:32:14;;;;;;;17.95;8.48;;;23.00;96.30;;;;;;5065916;28;20084;-87
2022/10/27 12:34:45;;;;;;;14.90;7.90;;;22.80;97.20;;;;;;5067779;28;20031;-87
2022/10/27 12:37:17;;;;;;;17.10;8.43;;;22.60;97.90;;;;;;5066993;28;20036;-83
2022/10/27 12:40:20;;;;;;;16.77;8.10;;;22.30;99.00;;;;;;5061654;28;20048;-85
2022/10/27 12:43:18;;;;;;;18.75;8.70;;;21.90;99.90;;;;;;5055847;28;20037;-84
2022/10/27 12:46:08;;;;;;;15.73;8.48;;;21.60;99.90;;;;;;5046081;28;20107;-87
2022/10/27 12:48:44;;;;;;;16.63;9.50;;;21.40;99.90;;;;;;5046243;28;20117;-87
2022/10/27 12:51:10;;;;;;;17.95;7.95;;;21.30;99.90;;;;;;5050589;28;20048;-87